sensor_id;sensor_type;location;lat;lon;timestamp;P1;durP1;ratioP1;P2;durP2;ratioP2
85871;SDS011;76390;44.082;3.046;2024-02-15T00:00:20;10.70;;;4.78;;
85871;SDS011;76390;44.082;3.046;2024-02-15T00:02:47;5.90;;;2.95;;
85871;SDS011;76390;44.082;3.046;2024-02-15T00:05:13;7.13;;;3.28;;
85871;SDS011;76390;44.082;3.046;2024-02-15T00:07:41;5.63;;;3.05;;
85871;SDS011;76390;44.082;3.046;2024-02-15T00:10:06;5.40;;;3.20;;
85871;SDS011;76390;44.082;3.046;2024-02-15T00:12:34;5.82;;;3.67;;
85871;SDS011;76390;44.082;3.046;2024-02-15T00:14:59;6.32;;;3.47;;
85871;SDS011;76390;44.082;3.046;2024-02-15T00:17:26;6.95;;;3.42;;
85871;SDS011;76390;44.082;3.046;2024-02-15T00:19:54;6.13;;;3.42;;
85871;SDS011;76390;44.082;3.046;2024-02-15T00:22:20;5.65;;;3.08;;
85871;SDS011;76390;44.082;3.046;2024-02-15T00:24:46;3.83;;;2.78;;
85871;SDS011;76390;44.082;3.046;2024-02-15T00:27:14;6.18;;;2.72;;
85871;SDS011;76390;44.082;3.046;2024-02-15T00:29:40;7.57;;;2.85;;
85871;SDS011;76390;44.082;3.046;2024-02-15T00:32:06;5.10;;;3.20;;
85871;SDS011;76390;44.082;3.046;2024-02-15T00:34:32;8.75;;;4.32;;
85871;SDS011;76390;44.082;3.046;2024-02-15T00:36:58;6.20;;;3.97;;
85871;SDS011;76390;44.082;3.046;2024-02-15T00:39:24;7.90;;;3.22;;
85871;SDS011;76390;44.082;3.046;2024-02-15T00:41:50;6.80;;;3.10;;
85871;SDS011;76390;44.082;3.046;2024-02-15T00:44:15;5.82;;;3.33;;
85871;SDS011;76390;44.082;3.046;2024-02-15T00:46:42;5.00;;;3.15;;
85871;SDS011;76390;44.082;3.046;2024-02-15T00:49:08;5.50;;;3.33;;
85871;SDS011;76390;44.082;3.046;2024-02-15T00:51:34;7.90;;;4.18;;
85871;SDS011;76390;44.082;3.046;2024-02-15T00:54:01;15.27;;;7.65;;
85871;SDS011;76390;44.082;3.046;2024-02-15T00:56:27;9.70;;;5.28;;
85871;SDS011;76390;44.082;3.046;2024-02-15T00:58:54;12.75;;;6.63;;
85871;SDS011;76390;44.082;3.046;2024-02-15T01:01:20;16.35;;;7.82;;
85871;SDS011;76390;44.082;3.046;2024-02-15T01:03:46;12.27;;;6.38;;
85871;SDS011;76390;44.082;3.046;2024-02-15T01:06:11;11.13;;;6.25;;
85871;SDS011;76390;44.082;3.046;2024-02-15T01:08:37;9.30;;;5.45;;
85871;SDS011;76390;44.082;3.046;2024-02-15T01:11:02;10.18;;;5.78;;
85871;SDS011;76390;44.082;3.046;2024-02-15T01:13:29;13.18;;;6.75;;
85871;SDS011;76390;44.082;3.046;2024-02-15T01:15:54;10.75;;;4.78;;
85871;SDS011;76390;44.082;3.046;2024-02-15T01:18:21;7.85;;;4.32;;
85871;SDS011;76390;44.082;3.046;2024-02-15T01:20:46;7.63;;;4.35;;
85871;SDS011;76390;44.082;3.046;2024-02-15T01:23:11;8.40;;;3.92;;
85871;SDS011;76390;44.082;3.046;2024-02-15T01:25:37;9.43;;;3.60;;
85871;SDS011;76390;44.082;3.046;2024-02-15T01:28:05;6.50;;;3.50;;
85871;SDS011;76390;44.082;3.046;2024-02-15T01:30:31;8.38;;;3.80;;
85871;SDS011;76390;44.082;3.046;2024-02-15T01:32:57;6.65;;;4.05;;
85871;SDS011;76390;44.082;3.046;2024-02-15T01:35:23;7.85;;;4.38;;
85871;SDS011;76390;44.082;3.046;2024-02-15T01:37:49;8.60;;;4.07;;
85871;SDS011;76390;44.082;3.046;2024-02-15T01:40:15;7.13;;;3.75;;
85871;SDS011;76390;44.082;3.046;2024-02-15T01:42:41;8.00;;;3.75;;
85871;SDS011;76390;44.082;3.046;2024-02-15T01:45:07;9.40;;;4.68;;
85871;SDS011;76390;44.082;3.046;2024-02-15T01:47:35;11.23;;;6.18;;
85871;SDS011;76390;44.082;3.046;2024-02-15T01:50:00;11.80;;;5.50;;
85871;SDS011;76390;44.082;3.046;2024-02-15T01:52:26;8.68;;;4.63;;
85871;SDS011;76390;44.082;3.046;2024-02-15T01:54:52;7.60;;;4.28;;
85871;SDS011;76390;44.082;3.046;2024-02-15T01:57:18;7.82;;;4.03;;
85871;SDS011;76390;44.082;3.046;2024-02-15T01:59:46;7.93;;;3.70;;
85871;SDS011;76390;44.082;3.046;2024-02-15T02:02:12;8.43;;;4.40;;
85871;SDS011;76390;44.082;3.046;2024-02-15T02:04:39;8.68;;;4.47;;
85871;SDS011;76390;44.082;3.046;2024-02-15T02:07:06;8.32;;;4.72;;
85871;SDS011;76390;44.082;3.046;2024-02-15T02:09:31;6.32;;;3.65;;
85871;SDS011;76390;44.082;3.046;2024-02-15T02:11:57;8.65;;;5.10;;
85871;SDS011;76390;44.082;3.046;2024-02-15T02:14:23;10.75;;;6.13;;
85871;SDS011;76390;44.082;3.046;2024-02-15T02:16:49;11.52;;;5.15;;
85871;SDS011;76390;44.082;3.046;2024-02-15T02:19:14;8.98;;;4.93;;
85871;SDS011;76390;44.082;3.046;2024-02-15T02:21:42;6.47;;;3.85;;
85871;SDS011;76390;44.082;3.046;2024-02-15T02:24:16;9.63;;;4.18;;
85871;SDS011;76390;44.082;3.046;2024-02-15T02:26:47;5.78;;;3.28;;
85871;SDS011;76390;44.082;3.046;2024-02-15T02:29:13;6.95;;;4.05;;
85871;SDS011;76390;44.082;3.046;2024-02-15T02:31:40;6.68;;;4.18;;
85871;SDS011;76390;44.082;3.046;2024-02-15T02:34:07;7.93;;;4.10;;
85871;SDS011;76390;44.082;3.046;2024-02-15T02:36:34;13.82;;;6.53;;
85871;SDS011;76390;44.082;3.046;2024-02-15T02:38:59;7.45;;;3.28;;
85871;SDS011;76390;44.082;3.046;2024-02-15T02:41:28;6.57;;;3.90;;
85871;SDS011;76390;44.082;3.046;2024-02-15T02:43:57;6.90;;;3.95;;
85871;SDS011;76390;44.082;3.046;2024-02-15T02:46:23;7.18;;;3.72;;
85871;SDS011;76390;44.082;3.046;2024-02-15T02:48:48;5.30;;;3.00;;
85871;SDS011;76390;44.082;3.046;2024-02-15T02:51:15;6.00;;;3.42;;
85871;SDS011;76390;44.082;3.046;2024-02-15T02:53:40;8.00;;;4.10;;
85871;SDS011;76390;44.082;3.046;2024-02-15T02:56:06;5.88;;;3.53;;
85871;SDS011;76390;44.082;3.046;2024-02-15T02:58:33;6.97;;;4.03;;
85871;SDS011;76390;44.082;3.046;2024-02-15T03:00:59;7.60;;;4.13;;
85871;SDS011;76390;44.082;3.046;2024-02-15T03:03:25;7.45;;;4.57;;
85871;SDS011;76390;44.082;3.046;2024-02-15T03:05:51;8.30;;;3.95;;
85871;SDS011;76390;44.082;3.046;2024-02-15T03:08:16;9.73;;;4.65;;
85871;SDS011;76390;44.082;3.046;2024-02-15T03:10:42;7.90;;;4.32;;
85871;SDS011;76390;44.082;3.046;2024-02-15T03:13:08;8.18;;;4.07;;
85871;SDS011;76390;44.082;3.046;2024-02-15T03:15:34;8.10;;;4.10;;
85871;SDS011;76390;44.082;3.046;2024-02-15T03:18:00;8.88;;;4.70;;
85871;SDS011;76390;44.082;3.046;2024-02-15T03:20:36;7.78;;;3.80;;
85871;SDS011;76390;44.082;3.046;2024-02-15T03:23:02;7.65;;;3.88;;
85871;SDS011;76390;44.082;3.046;2024-02-15T03:25:28;7.85;;;3.90;;
85871;SDS011;76390;44.082;3.046;2024-02-15T03:27:57;8.20;;;3.75;;
85871;SDS011;76390;44.082;3.046;2024-02-15T03:30:24;6.50;;;2.67;;
85871;SDS011;76390;44.082;3.046;2024-02-15T03:32:51;6.47;;;2.90;;
85871;SDS011;76390;44.082;3.046;2024-02-15T03:35:18;7.15;;;3.60;;
85871;SDS011;76390;44.082;3.046;2024-02-15T03:37:44;6.35;;;3.40;;
85871;SDS011;76390;44.082;3.046;2024-02-15T03:40:10;6.18;;;3.40;;
85871;SDS011;76390;44.082;3.046;2024-02-15T03:42:36;7.25;;;3.70;;
85871;SDS011;76390;44.082;3.046;2024-02-15T03:45:04;7.07;;;4.13;;
85871;SDS011;76390;44.082;3.046;2024-02-15T03:47:31;8.20;;;3.90;;
85871;SDS011;76390;44.082;3.046;2024-02-15T03:49:58;6.82;;;3.88;;
85871;SDS011;76390;44.082;3.046;2024-02-15T03:52:24;5.75;;;3.60;;
85871;SDS011;76390;44.082;3.046;2024-02-15T03:54:50;6.93;;;3.72;;
85871;SDS011;76390;44.082;3.046;2024-02-15T03:57:15;6.45;;;3.75;;
85871;SDS011;76390;44.082;3.046;2024-02-15T03:59:42;6.40;;;3.58;;
85871;SDS011;76390;44.082;3.046;2024-02-15T04:02:07;8.93;;;3.67;;
85871;SDS011;76390;44.082;3.046;2024-02-15T04:04:39;8.02;;;3.72;;
85871;SDS011;76390;44.082;3.046;2024-02-15T04:07:08;6.00;;;3.85;;
85871;SDS011;76390;44.082;3.046;2024-02-15T04:09:34;5.60;;;3.35;;
85871;SDS011;76390;44.082;3.046;2024-02-15T04:12:01;8.40;;;4.43;;
85871;SDS011;76390;44.082;3.046;2024-02-15T04:14:27;5.55;;;3.08;;
85871;SDS011;76390;44.082;3.046;2024-02-15T04:16:53;5.43;;;3.10;;
85871;SDS011;76390;44.082;3.046;2024-02-15T04:19:18;5.65;;;3.03;;
85871;SDS011;76390;44.082;3.046;2024-02-15T04:21:45;9.38;;;3.83;;
85871;SDS011;76390;44.082;3.046;2024-02-15T04:24:11;5.40;;;3.20;;
85871;SDS011;76390;44.082;3.046;2024-02-15T04:26:37;7.38;;;3.75;;
85871;SDS011;76390;44.082;3.046;2024-02-15T04:29:03;8.18;;;3.00;;
85871;SDS011;76390;44.082;3.046;2024-02-15T04:31:28;5.60;;;3.40;;
85871;SDS011;76390;44.082;3.046;2024-02-15T04:33:54;5.30;;;3.05;;
85871;SDS011;76390;44.082;3.046;2024-02-15T04:36:23;5.25;;;3.80;;
85871;SDS011;76390;44.082;3.046;2024-02-15T04:38:50;5.60;;;3.35;;
85871;SDS011;76390;44.082;3.046;2024-02-15T04:41:16;6.68;;;3.42;;
85871;SDS011;76390;44.082;3.046;2024-02-15T04:43:48;6.40;;;3.13;;
85871;SDS011;76390;44.082;3.046;2024-02-15T04:46:17;7.20;;;3.13;;
85871;SDS011;76390;44.082;3.046;2024-02-15T04:48:46;8.00;;;2.95;;
85871;SDS011;76390;44.082;3.046;2024-02-15T04:51:11;5.25;;;3.13;;
85871;SDS011;76390;44.082;3.046;2024-02-15T04:53:37;6.30;;;2.95;;
85871;SDS011;76390;44.082;3.046;2024-02-15T04:56:07;7.20;;;3.60;;
85871;SDS011;76390;44.082;3.046;2024-02-15T04:58:39;7.47;;;3.20;;
85871;SDS011;76390;44.082;3.046;2024-02-15T05:01:14;5.85;;;2.47;;
85871;SDS011;76390;44.082;3.046;2024-02-15T05:03:41;5.18;;;2.85;;
85871;SDS011;76390;44.082;3.046;2024-02-15T05:06:07;5.30;;;3.25;;
85871;SDS011;76390;44.082;3.046;2024-02-15T05:08:33;8.25;;;3.50;;
85871;SDS011;76390;44.082;3.046;2024-02-15T05:11:02;7.47;;;3.03;;
85871;SDS011;76390;44.082;3.046;2024-02-15T05:13:29;8.52;;;3.33;;
85871;SDS011;76390;44.082;3.046;2024-02-15T05:15:55;5.82;;;3.30;;
85871;SDS011;76390;44.082;3.046;2024-02-15T05:18:20;7.28;;;3.50;;
85871;SDS011;76390;44.082;3.046;2024-02-15T05:20:46;6.22;;;3.22;;
85871;SDS011;76390;44.082;3.046;2024-02-15T05:23:11;5.28;;;3.13;;
85871;SDS011;76390;44.082;3.046;2024-02-15T05:25:37;6.65;;;4.03;;
85871;SDS011;76390;44.082;3.046;2024-02-15T05:28:03;8.65;;;3.08;;
85871;SDS011;76390;44.082;3.046;2024-02-15T05:30:31;4.35;;;2.65;;
85871;SDS011;76390;44.082;3.046;2024-02-15T05:32:58;6.30;;;3.35;;
85871;SDS011;76390;44.082;3.046;2024-02-15T05:35:23;8.27;;;3.22;;
85871;SDS011;76390;44.082;3.046;2024-02-15T05:37:49;5.30;;;3.13;;
85871;SDS011;76390;44.082;3.046;2024-02-15T05:40:17;7.55;;;3.03;;
85871;SDS011;76390;44.082;3.046;2024-02-15T05:42:44;6.32;;;3.05;;
85871;SDS011;76390;44.082;3.046;2024-02-15T05:45:29;8.10;;;3.60;;
85871;SDS011;76390;44.082;3.046;2024-02-15T05:47:57;8.13;;;3.40;;
85871;SDS011;76390;44.082;3.046;2024-02-15T05:50:23;7.45;;;3.38;;
85871;SDS011;76390;44.082;3.046;2024-02-15T05:52:49;7.00;;;3.28;;
85871;SDS011;76390;44.082;3.046;2024-02-15T05:55:18;5.53;;;3.05;;
85871;SDS011;76390;44.082;3.046;2024-02-15T05:57:44;7.10;;;3.08;;
85871;SDS011;76390;44.082;3.046;2024-02-15T06:00:10;7.55;;;2.85;;
85871;SDS011;76390;44.082;3.046;2024-02-15T06:02:36;7.10;;;3.72;;
85871;SDS011;76390;44.082;3.046;2024-02-15T06:05:01;6.28;;;3.50;;
85871;SDS011;76390;44.082;3.046;2024-02-15T06:07:29;5.32;;;3.00;;
85871;SDS011;76390;44.082;3.046;2024-02-15T06:09:58;6.70;;;3.25;;
85871;SDS011;76390;44.082;3.046;2024-02-15T06:12:28;5.90;;;3.20;;
85871;SDS011;76390;44.082;3.046;2024-02-15T06:14:54;6.85;;;3.50;;
85871;SDS011;76390;44.082;3.046;2024-02-15T06:17:19;7.85;;;4.03;;
85871;SDS011;76390;44.082;3.046;2024-02-15T06:19:45;14.25;;;4.43;;
85871;SDS011;76390;44.082;3.046;2024-02-15T06:22:10;8.93;;;4.90;;
85871;SDS011;76390;44.082;3.046;2024-02-15T06:24:37;9.95;;;6.03;;
85871;SDS011;76390;44.082;3.046;2024-02-15T06:27:03;10.10;;;5.13;;
85871;SDS011;76390;44.082;3.046;2024-02-15T06:29:29;10.90;;;6.45;;
85871;SDS011;76390;44.082;3.046;2024-02-15T06:32:18;13.57;;;5.25;;
85871;SDS011;76390;44.082;3.046;2024-02-15T06:35:02;13.20;;;6.43;;
85871;SDS011;76390;44.082;3.046;2024-02-15T06:37:46;7.55;;;4.63;;
85871;SDS011;76390;44.082;3.046;2024-02-15T06:40:30;12.00;;;6.57;;
85871;SDS011;76390;44.082;3.046;2024-02-15T06:42:56;14.30;;;7.03;;
85871;SDS011;76390;44.082;3.046;2024-02-15T06:45:21;8.65;;;3.67;;
85871;SDS011;76390;44.082;3.046;2024-02-15T06:47:47;9.30;;;4.90;;
85871;SDS011;76390;44.082;3.046;2024-02-15T06:50:12;11.07;;;4.88;;
85871;SDS011;76390;44.082;3.046;2024-02-15T06:52:39;7.43;;;3.45;;
85871;SDS011;76390;44.082;3.046;2024-02-15T06:55:08;5.72;;;2.83;;
85871;SDS011;76390;44.082;3.046;2024-02-15T06:57:37;11.18;;;4.30;;
85871;SDS011;76390;44.082;3.046;2024-02-15T07:00:07;8.00;;;3.95;;
85871;SDS011;76390;44.082;3.046;2024-02-15T07:02:33;7.97;;;3.50;;
85871;SDS011;76390;44.082;3.046;2024-02-15T07:04:59;8.05;;;3.75;;
85871;SDS011;76390;44.082;3.046;2024-02-15T07:07:24;7.90;;;4.00;;
85871;SDS011;76390;44.082;3.046;2024-02-15T07:09:50;9.07;;;3.22;;
85871;SDS011;76390;44.082;3.046;2024-02-15T07:12:16;7.97;;;3.03;;
85871;SDS011;76390;44.082;3.046;2024-02-15T07:14:42;8.07;;;4.22;;
85871;SDS011;76390;44.082;3.046;2024-02-15T07:17:08;8.23;;;4.13;;
85871;SDS011;76390;44.082;3.046;2024-02-15T07:19:34;4.68;;;2.72;;
85871;SDS011;76390;44.082;3.046;2024-02-15T07:22:02;7.43;;;3.30;;
85871;SDS011;76390;44.082;3.046;2024-02-15T07:24:27;8.15;;;3.40;;
85871;SDS011;76390;44.082;3.046;2024-02-15T07:26:53;7.47;;;3.45;;
85871;SDS011;76390;44.082;3.046;2024-02-15T07:29:23;6.60;;;2.75;;
85871;SDS011;76390;44.082;3.046;2024-02-15T07:31:49;9.05;;;3.30;;
85871;SDS011;76390;44.082;3.046;2024-02-15T07:34:15;7.88;;;3.55;;
85871;SDS011;76390;44.082;3.046;2024-02-15T07:36:41;6.03;;;3.33;;
85871;SDS011;76390;44.082;3.046;2024-02-15T07:39:08;8.45;;;4.00;;
85871;SDS011;76390;44.082;3.046;2024-02-15T07:41:40;8.88;;;3.85;;
85871;SDS011;76390;44.082;3.046;2024-02-15T07:44:05;8.13;;;3.47;;
85871;SDS011;76390;44.082;3.046;2024-02-15T07:46:31;6.68;;;3.40;;
85871;SDS011;76390;44.082;3.046;2024-02-15T07:48:56;7.57;;;3.70;;
85871;SDS011;76390;44.082;3.046;2024-02-15T07:51:22;10.93;;;4.22;;
85871;SDS011;76390;44.082;3.046;2024-02-15T07:53:48;10.57;;;4.18;;
85871;SDS011;76390;44.082;3.046;2024-02-15T07:56:15;11.55;;;4.45;;
85871;SDS011;76390;44.082;3.046;2024-02-15T07:58:41;10.55;;;4.28;;
85871;SDS011;76390;44.082;3.046;2024-02-15T08:01:10;7.88;;;4.20;;
85871;SDS011;76390;44.082;3.046;2024-02-15T08:03:35;9.20;;;4.03;;
85871;SDS011;76390;44.082;3.046;2024-02-15T08:06:01;13.95;;;4.35;;
85871;SDS011;76390;44.082;3.046;2024-02-15T08:08:32;10.85;;;4.30;;
85871;SDS011;76390;44.082;3.046;2024-02-15T08:10:59;11.52;;;4.38;;
85871;SDS011;76390;44.082;3.046;2024-02-15T08:13:27;10.23;;;4.40;;
85871;SDS011;76390;44.082;3.046;2024-02-15T08:15:54;11.75;;;4.28;;
85871;SDS011;76390;44.082;3.046;2024-02-15T08:18:20;8.95;;;3.80;;
85871;SDS011;76390;44.082;3.046;2024-02-15T08:20:46;14.55;;;4.60;;
85871;SDS011;76390;44.082;3.046;2024-02-15T08:23:12;9.52;;;4.15;;
85871;SDS011;76390;44.082;3.046;2024-02-15T08:25:40;10.07;;;3.90;;
85871;SDS011;76390;44.082;3.046;2024-02-15T08:28:08;9.48;;;4.13;;
85871;SDS011;76390;44.082;3.046;2024-02-15T08:30:34;19.08;;;4.38;;
85871;SDS011;76390;44.082;3.046;2024-02-15T08:32:59;9.75;;;3.67;;
85871;SDS011;76390;44.082;3.046;2024-02-15T08:35:25;8.20;;;3.78;;
85871;SDS011;76390;44.082;3.046;2024-02-15T08:37:50;9.07;;;3.67;;
85871;SDS011;76390;44.082;3.046;2024-02-15T08:40:17;7.88;;;3.55;;
85871;SDS011;76390;44.082;3.046;2024-02-15T08:42:44;6.53;;;3.15;;
85871;SDS011;76390;44.082;3.046;2024-02-15T08:45:11;6.15;;;3.65;;
85871;SDS011;76390;44.082;3.046;2024-02-15T08:47:37;8.90;;;3.50;;
85871;SDS011;76390;44.082;3.046;2024-02-15T08:50:04;6.10;;;3.25;;
85871;SDS011;76390;44.082;3.046;2024-02-15T08:52:31;6.88;;;3.60;;
85871;SDS011;76390;44.082;3.046;2024-02-15T08:54:57;7.60;;;3.70;;
85871;SDS011;76390;44.082;3.046;2024-02-15T08:57:24;6.57;;;3.17;;
85871;SDS011;76390;44.082;3.046;2024-02-15T08:59:50;6.85;;;3.50;;
85871;SDS011;76390;44.082;3.046;2024-02-15T09:02:17;7.97;;;3.13;;
85871;SDS011;76390;44.082;3.046;2024-02-15T09:04:43;6.22;;;3.17;;
85871;SDS011;76390;44.082;3.046;2024-02-15T09:07:08;12.20;;;3.42;;
85871;SDS011;76390;44.082;3.046;2024-02-15T09:09:34;6.55;;;3.13;;
85871;SDS011;76390;44.082;3.046;2024-02-15T09:12:02;8.45;;;3.83;;
85871;SDS011;76390;44.082;3.046;2024-02-15T09:14:34;6.32;;;3.40;;
85871;SDS011;76390;44.082;3.046;2024-02-15T09:17:02;6.60;;;3.97;;
85871;SDS011;76390;44.082;3.046;2024-02-15T09:19:32;5.40;;;3.47;;
85871;SDS011;76390;44.082;3.046;2024-02-15T09:21:58;9.68;;;3.67;;
85871;SDS011;76390;44.082;3.046;2024-02-15T09:24:23;5.90;;;3.10;;
85871;SDS011;76390;44.082;3.046;2024-02-15T09:26:50;9.07;;;3.40;;
85871;SDS011;76390;44.082;3.046;2024-02-15T09:29:17;9.30;;;3.78;;
85871;SDS011;76390;44.082;3.046;2024-02-15T09:31:45;6.82;;;3.10;;
85871;SDS011;76390;44.082;3.046;2024-02-15T09:34:12;7.13;;;3.33;;
85871;SDS011;76390;44.082;3.046;2024-02-15T09:36:38;5.55;;;3.10;;
85871;SDS011;76390;44.082;3.046;2024-02-15T09:39:04;8.20;;;3.28;;
85871;SDS011;76390;44.082;3.046;2024-02-15T09:41:29;10.27;;;4.00;;
85871;SDS011;76390;44.082;3.046;2024-02-15T09:43:55;5.80;;;2.92;;
85871;SDS011;76390;44.082;3.046;2024-02-15T09:46:21;10.07;;;3.78;;
85871;SDS011;76390;44.082;3.046;2024-02-15T09:48:47;8.57;;;3.50;;
85871;SDS011;76390;44.082;3.046;2024-02-15T09:51:16;6.93;;;3.58;;
85871;SDS011;76390;44.082;3.046;2024-02-15T09:53:44;7.80;;;3.30;;
85871;SDS011;76390;44.082;3.046;2024-02-15T09:56:11;6.57;;;3.28;;
85871;SDS011;76390;44.082;3.046;2024-02-15T09:58:38;6.45;;;3.85;;
85871;SDS011;76390;44.082;3.046;2024-02-15T10:01:04;11.18;;;3.72;;
85871;SDS011;76390;44.082;3.046;2024-02-15T10:03:36;6.70;;;3.20;;
85871;SDS011;76390;44.082;3.046;2024-02-15T10:06:06;6.60;;;3.60;;
85871;SDS011;76390;44.082;3.046;2024-02-15T10:08:31;6.65;;;3.50;;
85871;SDS011;76390;44.082;3.046;2024-02-15T10:11:09;7.20;;;3.40;;
85871;SDS011;76390;44.082;3.046;2024-02-15T10:13:35;6.97;;;3.17;;
85871;SDS011;76390;44.082;3.046;2024-02-15T10:16:14;7.95;;;3.88;;
85871;SDS011;76390;44.082;3.046;2024-02-15T10:18:40;7.88;;;3.75;;
85871;SDS011;76390;44.082;3.046;2024-02-15T10:21:06;5.55;;;3.60;;
85871;SDS011;76390;44.082;3.046;2024-02-15T10:23:31;9.40;;;6.10;;
85871;SDS011;76390;44.082;3.046;2024-02-15T10:25:57;10.05;;;3.45;;
85871;SDS011;76390;44.082;3.046;2024-02-15T10:28:23;6.38;;;3.20;;
85871;SDS011;76390;44.082;3.046;2024-02-15T10:30:49;7.57;;;3.72;;
85871;SDS011;76390;44.082;3.046;2024-02-15T10:33:27;5.75;;;3.60;;
85871;SDS011;76390;44.082;3.046;2024-02-15T10:36:09;8.30;;;3.35;;
85871;SDS011;76390;44.082;3.046;2024-02-15T10:38:38;5.80;;;3.10;;
85871;SDS011;76390;44.082;3.046;2024-02-15T10:41:04;8.52;;;3.17;;
85871;SDS011;76390;44.082;3.046;2024-02-15T10:43:32;7.03;;;3.55;;
85871;SDS011;76390;44.082;3.046;2024-02-15T10:45:58;6.35;;;3.33;;
85871;SDS011;76390;44.082;3.046;2024-02-15T10:48:24;7.03;;;3.58;;
85871;SDS011;76390;44.082;3.046;2024-02-15T10:50:49;7.32;;;3.30;;
85871;SDS011;76390;44.082;3.046;2024-02-15T10:53:35;11.93;;;3.40;;
85871;SDS011;76390;44.082;3.046;2024-02-15T10:56:19;8.48;;;3.17;;
85871;SDS011;76390;44.082;3.046;2024-02-15T10:58:55;5.45;;;3.15;;
85871;SDS011;76390;44.082;3.046;2024-02-15T11:01:28;12.90;;;4.20;;
85871;SDS011;76390;44.082;3.046;2024-02-15T11:03:59;7.32;;;3.60;;
85871;SDS011;76390;44.082;3.046;2024-02-15T11:06:28;5.45;;;3.00;;
85871;SDS011;76390;44.082;3.046;2024-02-15T11:08:55;7.15;;;3.33;;
85871;SDS011;76390;44.082;3.046;2024-02-15T11:11:21;6.60;;;3.50;;
85871;SDS011;76390;44.082;3.046;2024-02-15T11:13:47;7.15;;;3.25;;
85871;SDS011;76390;44.082;3.046;2024-02-15T11:19:08;6.75;;;3.22;;
85871;SDS011;76390;44.082;3.046;2024-02-15T11:21:54;5.45;;;3.25;;
85871;SDS011;76390;44.082;3.046;2024-02-15T11:26:53;6.15;;;3.30;;
85871;SDS011;76390;44.082;3.046;2024-02-15T11:35:14;6.80;;;3.60;;
85871;SDS011;76390;44.082;3.046;2024-02-15T11:40:19;5.32;;;3.25;;
85871;SDS011;76390;44.082;3.046;2024-02-15T11:42:55;10.07;;;3.72;;
85871;SDS011;76390;44.082;3.046;2024-02-15T11:45:28;5.50;;;3.55;;
85871;SDS011;76390;44.082;3.046;2024-02-15T11:47:58;5.05;;;3.80;;
85871;SDS011;76390;44.082;3.046;2024-02-15T11:50:23;6.22;;;3.10;;
85871;SDS011;76390;44.082;3.046;2024-02-15T11:52:51;8.48;;;3.60;;
85871;SDS011;76390;44.082;3.046;2024-02-15T11:55:20;7.55;;;3.30;;
85871;SDS011;76390;44.082;3.046;2024-02-15T11:57:56;7.03;;;4.05;;
85871;SDS011;76390;44.082;3.046;2024-02-15T12:00:48;7.53;;;3.90;;
85871;SDS011;76390;44.082;3.046;2024-02-15T12:03:32;7.70;;;4.22;;
85871;SDS011;76390;44.082;3.046;2024-02-15T12:06:17;6.53;;;3.90;;
85871;SDS011;76390;44.082;3.046;2024-02-15T12:09:01;7.15;;;3.92;;
85871;SDS011;76390;44.082;3.046;2024-02-15T12:11:46;7.70;;;4.35;;
85871;SDS011;76390;44.082;3.046;2024-02-15T12:14:30;7.47;;;3.53;;
85871;SDS011;76390;44.082;3.046;2024-02-15T12:17:14;7.75;;;4.20;;
85871;SDS011;76390;44.082;3.046;2024-02-15T12:20:01;9.70;;;4.78;;
85871;SDS011;76390;44.082;3.046;2024-02-15T12:22:51;8.32;;;4.32;;
85871;SDS011;76390;44.082;3.046;2024-02-15T12:25:18;8.13;;;4.32;;
85871;SDS011;76390;44.082;3.046;2024-02-15T12:27:46;7.97;;;3.72;;
85871;SDS011;76390;44.082;3.046;2024-02-15T12:30:15;11.35;;;3.60;;
85871;SDS011;76390;44.082;3.046;2024-02-15T12:32:50;8.05;;;3.58;;
85871;SDS011;76390;44.082;3.046;2024-02-15T12:35:20;6.65;;;3.58;;
85871;SDS011;76390;44.082;3.046;2024-02-15T12:40:30;6.45;;;3.50;;
85871;SDS011;76390;44.082;3.046;2024-02-15T12:42:56;6.50;;;3.47;;
85871;SDS011;76390;44.082;3.046;2024-02-15T12:45:24;7.75;;;3.75;;
85871;SDS011;76390;44.082;3.046;2024-02-15T12:47:53;6.00;;;3.33;;
85871;SDS011;76390;44.082;3.046;2024-02-15T12:50:20;13.75;;;3.90;;
85871;SDS011;76390;44.082;3.046;2024-02-15T12:52:47;17.48;;;6.13;;
85871;SDS011;76390;44.082;3.046;2024-02-15T12:57:44;8.13;;;3.63;;
85871;SDS011;76390;44.082;3.046;2024-02-15T13:00:17;5.88;;;3.22;;
85871;SDS011;76390;44.082;3.046;2024-02-15T13:02:47;7.03;;;3.80;;
85871;SDS011;76390;44.082;3.046;2024-02-15T13:05:17;3.85;;;2.25;;
85871;SDS011;76390;44.082;3.046;2024-02-15T13:07:49;6.70;;;3.65;;
85871;SDS011;76390;44.082;3.046;2024-02-15T13:10:15;6.72;;;3.28;;
85871;SDS011;76390;44.082;3.046;2024-02-15T13:12:42;6.03;;;3.10;;
85871;SDS011;76390;44.082;3.046;2024-02-15T13:15:09;4.63;;;2.70;;
85871;SDS011;76390;44.082;3.046;2024-02-15T13:17:39;5.03;;;3.00;;
85871;SDS011;76390;44.082;3.046;2024-02-15T13:20:08;6.95;;;3.47;;
85871;SDS011;76390;44.082;3.046;2024-02-15T13:22:36;5.72;;;2.65;;
85871;SDS011;76390;44.082;3.046;2024-02-15T13:25:04;6.68;;;3.40;;
85871;SDS011;76390;44.082;3.046;2024-02-15T13:27:34;5.68;;;2.95;;
85871;SDS011;76390;44.082;3.046;2024-02-15T13:30:06;7.45;;;3.30;;
85871;SDS011;76390;44.082;3.046;2024-02-15T13:32:36;7.30;;;3.10;;
85871;SDS011;76390;44.082;3.046;2024-02-15T13:35:06;7.78;;;3.03;;
85871;SDS011;76390;44.082;3.046;2024-02-15T13:37:42;8.02;;;3.03;;
85871;SDS011;76390;44.082;3.046;2024-02-15T13:40:11;6.82;;;3.20;;
85871;SDS011;76390;44.082;3.046;2024-02-15T13:42:46;7.22;;;2.60;;
85871;SDS011;76390;44.082;3.046;2024-02-15T13:47:49;4.40;;;2.60;;
85871;SDS011;76390;44.082;3.046;2024-02-15T13:50:16;6.30;;;2.40;;
85871;SDS011;76390;44.082;3.046;2024-02-15T13:52:45;5.13;;;2.58;;
85871;SDS011;76390;44.082;3.046;2024-02-15T13:55:15;6.15;;;3.15;;
85871;SDS011;76390;44.082;3.046;2024-02-15T13:57:44;6.15;;;2.90;;
85871;SDS011;76390;44.082;3.046;2024-02-15T14:00:14;6.30;;;2.65;;
85871;SDS011;76390;44.082;3.046;2024-02-15T14:02:47;6.15;;;2.40;;
85871;SDS011;76390;44.082;3.046;2024-02-15T14:05:19;6.90;;;2.72;;
85871;SDS011;76390;44.082;3.046;2024-02-15T14:07:49;5.05;;;2.92;;
85871;SDS011;76390;44.082;3.046;2024-02-15T14:10:15;5.47;;;2.70;;
85871;SDS011;76390;44.082;3.046;2024-02-15T14:12:46;4.28;;;2.50;;
85871;SDS011;76390;44.082;3.046;2024-02-15T14:15:12;5.47;;;2.40;;
85871;SDS011;76390;44.082;3.046;2024-02-15T14:17:37;6.47;;;2.47;;
85871;SDS011;76390;44.082;3.046;2024-02-15T14:20:03;5.10;;;2.50;;
85871;SDS011;76390;44.082;3.046;2024-02-15T14:22:33;9.70;;;2.70;;
85871;SDS011;76390;44.082;3.046;2024-02-15T14:24:59;6.95;;;2.65;;
85871;SDS011;76390;44.082;3.046;2024-02-15T14:27:24;6.00;;;2.35;;
85871;SDS011;76390;44.082;3.046;2024-02-15T14:29:50;4.90;;;2.13;;
85871;SDS011;76390;44.082;3.046;2024-02-15T14:32:34;5.30;;;2.50;;
85871;SDS011;76390;44.082;3.046;2024-02-15T14:35:18;6.13;;;2.75;;
85871;SDS011;76390;44.082;3.046;2024-02-15T14:37:46;8.20;;;3.15;;
85871;SDS011;76390;44.082;3.046;2024-02-15T14:40:12;7.32;;;2.42;;
85871;SDS011;76390;44.082;3.046;2024-02-15T14:42:40;9.20;;;3.00;;
85871;SDS011;76390;44.082;3.046;2024-02-15T14:45:09;5.07;;;2.40;;
85871;SDS011;76390;44.082;3.046;2024-02-15T14:47:36;6.13;;;2.58;;
85871;SDS011;76390;44.082;3.046;2024-02-15T14:50:02;5.05;;;2.15;;
85871;SDS011;76390;44.082;3.046;2024-02-15T14:52:29;8.48;;;2.38;;
85871;SDS011;76390;44.082;3.046;2024-02-15T14:54:54;5.68;;;2.60;;
85871;SDS011;76390;44.082;3.046;2024-02-15T14:57:20;4.80;;;2.58;;
85871;SDS011;76390;44.082;3.046;2024-02-15T14:59:45;7.22;;;2.80;;
85871;SDS011;76390;44.082;3.046;2024-02-15T15:02:11;8.88;;;2.72;;
85871;SDS011;76390;44.082;3.046;2024-02-15T15:04:37;4.63;;;2.28;;
85871;SDS011;76390;44.082;3.046;2024-02-15T15:07:22;5.78;;;2.50;;
85871;SDS011;76390;44.082;3.046;2024-02-15T15:10:07;3.95;;;2.17;;
85871;SDS011;76390;44.082;3.046;2024-02-15T15:12:51;5.45;;;2.38;;